Las Vegas, Nevada (DRI) Weather observations

Data are for observation ending at time listed.
 Day   Time    Ave.   Ave.  Ave.  Vector   Max.   Stn.    Total    Solar   Ave.  
  of    of     Air    Rel.  Wind   Wind    Wind   Baro.  Precip.   Rad.    Soil  
Year   Day     Temp.  Hum.  Speed  Dir.    Gust   Pres.                    Temp. 
2016   (PST)    F      %     mph   deg.    mph     mb.     in.     W/m2     F   
------------------------------------------------------------------------------
 342    8:00   46.0    22    4.6    30      8.0   949.1    0.00      70    56.6
 342    8:10   45.9    23    3.7    30      9.3   949.3    0.00      72    56.6
 342    8:20   46.0    23    3.1    26      6.9   949.5    0.00      81    56.5
 342    8:30   46.6    22    3.1    20      9.1   949.7    0.00      91    56.5
 342    8:40   47.0    22    3.7    24      7.3   949.9    0.00      90    56.4
 342    8:50   47.2    21    3.7    23      7.2   950.1    0.00      94    56.4
 342    9:00   47.4    21    3.3    27      6.8   950.2    0.00     137    56.3
 342    9:10   47.6    21    4.4    26      8.2   950.3    0.00     355    56.3
 342    9:20   48.5    20    3.5    15      7.1   950.4    0.00     462    56.3
 342    9:30   48.7    20    4.1    24      7.7   950.6    0.00     425    56.2
 342    9:40   48.9    20    4.2    29      7.5   950.7    0.00     494    56.2
 342    9:50   48.8    20    4.3    30      9.1   950.7    0.00     521    56.2
 342   10:00   48.9    20    3.9    33      7.6   950.7    0.00     476    56.1
 342   10:10   49.5    19    3.4    10      6.2   950.7    0.00     531    56.1
 342   10:20   49.5    19    1.9    36      6.6   950.6    0.00     382    56.1
 342   10:30   50.0    19    1.2    52      5.3   950.4    0.00     597    56.1
 342   10:40   50.1    19    1.9    32      4.4   950.3    0.00     579    56.1
 342   10:50   50.3    19    1.9    32      4.3   950.2    0.00     619    56.1
 342   11:00   50.6    18    3.0    30      7.3   950.1    0.00     633    56.0
 342   11:10   51.1    18    2.7    43      5.9   950.0    0.00     638    56.0
 342   11:20   51.2    17    3.0    42      6.2   949.9    0.00     643    56.0
 342   11:30   52.1    17    2.4    16      5.3   949.9    0.00     646    56.0
 342   11:40   51.5    18    3.0    48      7.5   949.9    0.00     633    56.0
 342   11:50   50.9    18    3.2    51      9.1   949.8    0.00     631    56.1
 342   12:00   51.3    17    2.2    52      6.4   949.7    0.00     623    56.1
 342   12:10   51.5    17    2.5    47      5.6   949.5    0.00     607    56.1
 342   12:20   51.9    17    2.9    45      6.3   949.6    0.00     632    56.2
 342   12:30   52.1    17    1.9    45      6.0   949.5    0.00     559    56.3
 342   12:40   52.7    16    2.2    44      5.2   949.4    0.00     581    56.3
 342   12:50   54.2    15    1.3   319      3.6   949.3    0.00     626    56.4
 342   13:00   54.2    15    2.4    31      6.1   949.2    0.00     462    56.5
 342   13:10   53.5    15    2.6     7      5.8   949.1    0.00     448    56.7
 342   13:20   53.6    15    2.7    33      7.0   949.0    0.00     576    56.8
 342   13:30   53.5    14    3.0    53      8.0   948.9    0.00     596    56.9
 342   13:40   53.7    13    3.0    48      6.2   948.9    0.00     497    57.0
 342   13:50   53.6    13    3.3    51      8.9   948.8    0.00     478    57.2
 342   14:00   53.3    14    2.5    54      6.1   948.8    0.00     322    57.3
 342   14:10   53.6    14    1.8    39      6.0   948.8    0.00     352    57.5
 342   14:20   54.0    14    2.3    42      6.2   948.9    0.00     434    57.6
 342   14:30   54.1    14    2.8    35      7.2   948.9    0.00     289    57.7
 342   14:40   53.0    13    2.2    50      7.9   949.0    0.00     152    57.8
 342   14:50   52.6    14    2.0    55      4.4   949.0    0.00     123    58.0
 342   15:00   53.0    14    2.0    50      5.6   949.0    0.00     142    58.1
 342   15:10   53.1    13    2.3    49      4.9   949.0    0.00     162    58.2
 342   15:20   53.2    13    1.7    54      5.8   949.1    0.00     151    58.4
 342   15:30   52.8    13    3.1    54      6.6   949.1    0.00      92    58.5
 342   15:40   52.1    13    1.7    51      5.0   949.2    0.00      48    58.6
 342   15:50   52.0    14    1.2    52      3.4   949.3    0.00      36    58.6
 342   16:00   51.8    14    1.8    44      4.7   949.4    0.00      21    58.7
 342   16:10   51.7    14    1.3    32      4.4   949.4    0.00      16    58.8
 342   16:20   51.4    15    1.4    40      3.6   949.4    0.00      12    58.8
 342   16:30   51.2    14    0.8    54      3.1   949.4    0.00       6    58.9
 342   16:40   50.8    14    0.8    50      2.8   949.4    0.00       4    58.9
 342   16:50   50.5    14    0.2    41      1.8   949.5    0.00       2    59.0
 342   17:00   50.5    14    0.3    35      1.0   949.6    0.00       0    59.0
 342   17:10   50.2    14    1.0    21      2.5   949.6    0.00       0    59.0
 342   17:20   50.1    15    1.0   352      2.3   949.8    0.00       0    59.0
 342   17:30   49.8    15    1.0     1      1.8   950.0    0.00       0    59.0
 342   17:40   49.4    15    0.2    12      1.5   950.1    0.00       0    59.0
 342   17:50   49.2    16    0.2    14      1.3   950.1    0.00       0    59.0
 342   18:00   49.1    17    0.3   357      1.9   950.2    0.00       0    59.0
 342   18:10   49.0    18    0.4   359      1.6   950.3    0.00       0    59.0
 342   18:20   49.0    18    0.4     4      1.4   950.5    0.00       0    59.0
 342   18:30   49.1    17    0.8     3      3.4   950.5    0.00       0    58.9
 342   18:40   48.6    18    0.1     6      1.0   950.5    0.00       0    58.9
 342   18:50   47.8    19    0.0     0      0.0   950.6    0.00       0    58.9
 342   19:00   47.6    19    0.0     7      0.7   950.7    0.00       0    58.9
 342   19:10   47.7    19    0.1     6      1.4   950.8    0.00       0    58.8
 342   19:20   48.1    18    0.5     1      2.0   950.9    0.00       0    58.7
 342   19:30   48.2    18    0.4    17      1.5   950.8    0.00       0    58.7
 342   19:40   47.9    18    0.6   317      3.8   950.8    0.00       0    58.7
 342   19:50   47.9    18    0.5   314      3.1   950.9    0.00       0    58.6
 342   20:00   47.4    19    0.3   339      1.8   950.9    0.00       0    58.6
 342   20:10   46.9    20    0.1   341      1.4   950.7    0.00       0    58.5
 342   20:20   46.8    21    0.1   338      1.5   950.8    0.00       0    58.4
 342   20:30   46.5    21    0.0   330      0.1   950.9    0.00       0    58.4
 342   20:40   45.9    22    0.0     0      0.0   951.0    0.00       0    58.3
 342   20:50   44.9    25    0.0     0      0.0   951.1    0.00       0    58.3
 342   21:00   44.6    25    0.0     0      0.0   951.1    0.00       0    58.2
 342   21:10   44.7    24    0.0     0      0.0   951.1    0.00       0    58.2
 342   21:20   44.5    25    0.0     0      0.0   951.1    0.00       0    58.1
 342   21:30   44.2    27    0.0     0      0.0   951.1    0.00       0    58.0
 342   21:40   43.8    27    0.1   346      1.1   951.3    0.00       0    58.0
 342   21:50   43.5    28    0.0     0      0.0   951.4    0.00       0    57.9
 342   22:00   42.9    29    0.1   346      0.9   951.5    0.00       0    57.9
 342   22:10   42.5    30    0.0     0      0.0   951.6    0.00       0    57.8
 342   22:20   42.0    31    0.0     0      0.0   951.6    0.00       0    57.7
 342   22:30   41.6    32    0.0     0      0.0   951.7    0.00       0    57.7
 342   22:40   41.0    33    0.1   345      0.9   951.6    0.00       0    57.6
 342   22:50   40.8    34    0.1   345      0.6   951.6    0.00       0    57.5
 342   23:00   40.9    33    0.0   345      0.5   951.6    0.00       0    57.5
 342   23:10   40.8    33    0.0   345      0.4   951.7    0.00       0    57.4
 342   23:20   40.5    34    0.0   345      0.2   951.7    0.00       0    57.3
 342   23:30   40.5    32    0.0     0      0.0   951.5    0.00       0    57.3
 342   23:40   40.4    32    0.0   323      0.6   951.4    0.00       0    57.2
 342   23:50   40.1    32    0.1   323      1.4   951.4    0.00       0    57.2
 343    0:00   40.0    31    0.1   323      1.4   951.3    0.00       0    57.1
 343    0:10   40.3    28    1.4   164      3.2   951.3    0.00       0    57.0
 343    0:20   40.5    27    1.1   162      2.9   951.5    0.00       0    57.0
 343    0:30   40.3    28    0.2   166      1.4   951.7    0.00       0    56.9
 343    0:40   39.9    30    0.0     0      0.0   951.7    0.00       0    56.8
 343    0:50   39.9    29    0.1   164      1.4   951.6    0.00       0    56.8
 343    1:00   40.3    29    0.5   161      1.8   951.5    0.00       0    56.7
 343    1:10   40.2    29    0.6   164      2.7   951.5    0.00       0    56.6
 343    1:20   39.7    30    0.3   174      1.8   951.7    0.00       0    56.6
 343    1:30   39.3    32    0.0     0      0.0   951.7    0.00       0    56.5
 343    1:40   38.8    32    0.4   164      1.7   951.7    0.00       0    56.4
 343    1:50   39.0    30    0.3   164      1.9   951.8    0.00       0    56.4
 343    2:00   38.8    31    0.2   168      2.0   951.8    0.00       0    56.3
 343    2:10   38.6    31    0.8   173      2.7   951.6    0.00       0    56.2
 343    2:20   38.3    32    0.7   175      2.4   951.7    0.00       0    56.2
 343    2:30   38.7    32    0.1   170      1.0   951.7    0.00       0    56.1
 343    2:40   38.8    32    0.1   151      1.6   951.8    0.00       0    56.0
 343    2:50   38.2    34    0.0     0      0.0   951.9    0.00       0    56.0
 343    3:00   38.5    32    0.4   162      1.8   951.7    0.00       0    55.9
 343    3:10   38.5    32    0.0   164      0.2   951.6    0.00       0    55.8
 343    3:20   38.8    32    0.0     0      0.0   951.6    0.00       0    55.8
 343    3:30   39.6    29    0.1   162      1.2   951.6    0.00       0    55.7
 343    3:40   39.4    29    0.0   180      1.2   951.4    0.00       0    55.6
 343    3:50   38.9    28    0.1   177      1.5   951.4    0.00       0    55.5
 343    4:00   38.7    27    0.2   170      1.6   951.4    0.00       0    55.5
 343    4:10   38.5    28    0.3   171      1.8   951.6    0.00       0    55.4
 343    4:20   38.1    30    0.0   152      0.8   951.7    0.00       0    55.4
 343    4:30   37.7    34    0.0   146      0.3   951.9    0.00       0    55.3
 343    4:40   37.4    34    0.0     0      0.0   951.8    0.00       0    55.2
 343    4:50   37.2    36    0.0     0      0.0   951.9    0.00       0    55.1
 343    5:00   37.4    36    0.0     0      0.0   952.0    0.00       0    55.1
 343    5:10   37.4    37    0.0     0      0.0   952.0    0.00       0    55.0
 343    5:20   36.9    38    0.0     0      0.0   952.2    0.00       0    55.0
 343    5:30   36.6    39    0.0     0      0.0   952.3    0.00       0    54.9
 343    5:40   36.1    41    0.0     0      0.0   952.4    0.00       0    54.8
 343    5:50   35.8    42    0.0     0      0.0   952.6    0.00       0    54.8
 343    6:00   35.7    43    0.0     0      0.0   952.6    0.00       0    54.7
 343    6:10   35.5    42    0.4   156      1.5   952.7    0.00       0    54.6
 343    6:20   36.2    40    0.4   156      1.5   952.8    0.00       0    54.6
 343    6:30   36.1    41    0.2   161      1.2   952.8    0.00       1    54.5
 343    6:40   36.2    40    0.1   171      1.2   953.0    0.00       4    54.5
 343    6:50   36.2    40    0.0     0      0.0   953.2    0.00       5    54.4
 343    7:00   36.5    39    0.2   172      1.4   953.2    0.00      11    54.3
 343    7:10   37.1    38    0.0   168      0.9   953.1    0.00      14    54.3
 343    7:20   37.7    35    0.0   180      0.1   953.2    0.00      18    54.2
 343    7:30   38.1    33    0.0     0      0.0   953.2    0.00      21    54.2
 343    7:40   38.7    34    0.0     0      0.0   953.3    0.00      24    54.1
 343    7:50   39.6    32    0.0     0      0.0   953.5    0.00      25    54.0

Return to Las Vegas, Nevada graphs page.


Western Regional Climate Center,wrcc@dri.edu